Terminal Aerodrome Forecast
Issued by NWS Jackson, KY

Home | Current Version | Previous Version | Graphics & Text | Print | Product List | Glossary On
Versions: 1 2 3 4 5 6 7 8 9 10 11 12 13 14 15 16
000
FTUS43 KJKL 051122
TAFJKL
TAF
KJKL 051122Z 0512/0612 00000KT 2SM BR SCT001 BKN120
      TEMPO 0512/0513 1/4SM FG VV002
     FM051300 VRB05KT P6SM SCT050
     FM051800 VRB06KT P6SM VCTS BKN050CB
     FM060600 VRB06KT P6SM VCTS BKN040CB
      TEMPO 0606/0610 2SM TSRA BR BKN030CB=

USA.gov is the U.S. government's official web portal to all federal, state and local government web resources and services.